4XPDC LFPB-EGJJ
Flight info
| Callsign | 4XPDC |
|---|---|
| Flight time | 0h 52m |
| Altitude | 18000 |
| Route | ELCOB N160 CAN/N0308F190 G274 SENLO/N0306F180 G274 BEVAV |
| Aircraft | B350/L-SBGRW/S |
Departure
| Time | 2026-05-04 19:30 |
|---|---|
| Airport | Paris-Le Bourget International Airport (LFPB) |
Arrival
| Time | 2026-05-04 20:23 |
|---|---|
| Airport | Jersey Airport (EGJJ) |
| Time | Latitude | Longitude | Altitude | Speed | Heading |
|---|---|---|---|---|---|
| 2026-05-04 19:05 | 48.95673 | 2.43700 | 161 ft | 0 kts | 257° |
| 2026-05-04 19:19 | 48.95673 | 2.43698 | 161 ft | 1 kts | 281° |
| 2026-05-04 19:19 | 48.95682 | 2.43700 | 161 ft | 0 kts | 44° |
| 2026-05-04 19:24 | 48.95682 | 2.43699 | 161 ft | 0 kts | 44° |
| 2026-05-04 19:24 | 48.95683 | 2.43701 | 161 ft | 2 kts | 44° |
| 2026-05-04 19:25 | 48.95721 | 2.43685 | 161 ft | 13 kts | 306° |
| 2026-05-04 19:25 | 48.95799 | 2.43660 | 161 ft | 15 kts | 297° |
| 2026-05-04 19:25 | 48.95851 | 2.43482 | 162 ft | 21 kts | 295° |
| 2026-05-04 19:25 | 48.95920 | 2.43256 | 161 ft | 26 kts | 293° |
| 2026-05-04 19:26 | 48.96017 | 2.43013 | 161 ft | 27 kts | 308° |
| 2026-05-04 19:26 | 48.96128 | 2.42800 | 161 ft | 26 kts | 307° |
| 2026-05-04 19:26 | 48.96237 | 2.42593 | 160 ft | 21 kts | 308° |
| 2026-05-04 19:26 | 48.96265 | 2.42360 | 158 ft | 24 kts | 268° |
| 2026-05-04 19:27 | 48.96262 | 2.42219 | 157 ft | 0 kts | 267° |
| 2026-05-04 19:28 | 48.96262 | 2.42212 | 157 ft | 5 kts | 258° |
| 2026-05-04 19:29 | 48.96278 | 2.42097 | 157 ft | 24 kts | 310° |
| 2026-05-04 19:29 | 48.96418 | 2.42166 | 156 ft | 26 kts | 64° |
| 2026-05-04 19:29 | 48.96497 | 2.42442 | 160 ft | 47 kts | 67° |
| 2026-05-04 19:29 | 48.96718 | 2.43278 | 171 ft | 117 kts | 66° |
| 2026-05-04 19:30 | 48.97081 | 2.44641 | 310 ft | 153 kts | 68° |
| 2026-05-04 19:30 | 48.97476 | 2.46159 | 801 ft | 156 kts | 83° |
| 2026-05-04 19:30 | 48.97366 | 2.47794 | 1382 ft | 157 kts | 100° |
| 2026-05-04 19:30 | 48.97225 | 2.49450 | 1948 ft | 157 kts | 95° |
| 2026-05-04 19:31 | 48.97108 | 2.51109 | 2510 ft | 158 kts | 96° |
| 2026-05-04 19:31 | 48.96986 | 2.52776 | 3055 ft | 159 kts | 96° |
| 2026-05-04 19:31 | 48.96864 | 2.54448 | 3592 ft | 160 kts | 96° |
| 2026-05-04 19:31 | 48.96739 | 2.56136 | 4130 ft | 160 kts | 96° |
| 2026-05-04 19:32 | 48.96617 | 2.57829 | 4658 ft | 161 kts | 96° |
| 2026-05-04 19:32 | 48.96493 | 2.59533 | 5173 ft | 163 kts | 96° |
| 2026-05-04 19:32 | 48.96367 | 2.61251 | 5687 ft | 164 kts | 97° |
| 2026-05-04 19:32 | 48.96123 | 2.62933 | 6212 ft | 164 kts | 122° |
| 2026-05-04 19:33 | 48.95210 | 2.63906 | 6700 ft | 168 kts | 169° |
| 2026-05-04 19:33 | 48.94053 | 2.63732 | 7162 ft | 172 kts | 206° |
| 2026-05-04 19:33 | 48.93163 | 2.62504 | 7631 ft | 176 kts | 232° |
| 2026-05-04 19:33 | 48.92392 | 2.61041 | 8107 ft | 178 kts | 230° |
| 2026-05-04 19:34 | 48.91591 | 2.59603 | 8604 ft | 179 kts | 229° |
| 2026-05-04 19:34 | 48.90780 | 2.58165 | 9097 ft | 180 kts | 229° |
| 2026-05-04 19:34 | 48.89960 | 2.56719 | 9592 ft | 181 kts | 229° |
| 2026-05-04 19:34 | 48.89146 | 2.55287 | 10050 ft | 182 kts | 229° |
| 2026-05-04 19:35 | 48.88313 | 2.53823 | 10491 ft | 184 kts | 229° |
| 2026-05-04 19:35 | 48.87476 | 2.52350 | 10938 ft | 184 kts | 229° |
| 2026-05-04 19:35 | 48.86635 | 2.50871 | 11378 ft | 186 kts | 229° |
| 2026-05-04 19:35 | 48.85783 | 2.49377 | 11822 ft | 187 kts | 228° |
| 2026-05-04 19:36 | 48.84929 | 2.47878 | 12295 ft | 188 kts | 228° |
| 2026-05-04 19:36 | 48.84362 | 2.46118 | 12742 ft | 190 kts | 266° |
| 2026-05-04 19:36 | 48.84645 | 2.44164 | 13151 ft | 194 kts | 294° |
| 2026-05-04 19:36 | 48.85105 | 2.42245 | 13549 ft | 197 kts | 286° |
| 2026-05-04 19:37 | 48.85444 | 2.40202 | 13966 ft | 198 kts | 283° |
| 2026-05-04 19:37 | 48.85756 | 2.38170 | 14367 ft | 198 kts | 283° |
| 2026-05-04 19:37 | 48.86071 | 2.36131 | 14773 ft | 198 kts | 283° |
| 2026-05-04 19:37 | 48.86384 | 2.34117 | 15176 ft | 199 kts | 283° |
| 2026-05-04 19:38 | 48.86702 | 2.32072 | 15589 ft | 199 kts | 283° |
| 2026-05-04 19:38 | 48.87021 | 2.30015 | 15999 ft | 200 kts | 283° |
| 2026-05-04 19:38 | 48.87341 | 2.27950 | 16406 ft | 201 kts | 283° |
| 2026-05-04 19:38 | 48.87660 | 2.25883 | 16817 ft | 201 kts | 283° |
| 2026-05-04 19:39 | 48.87873 | 2.24509 | 17089 ft | 202 kts | 283° |
| 2026-05-04 19:39 | 48.88193 | 2.22429 | 17498 ft | 203 kts | 283° |
| 2026-05-04 19:39 | 48.88515 | 2.20336 | 17914 ft | 204 kts | 283° |
| 2026-05-04 19:39 | 48.88857 | 2.18150 | 17964 ft | 222 kts | 284° |
| 2026-05-04 19:40 | 48.89229 | 2.15787 | 17972 ft | 237 kts | 283° |
| 2026-05-04 19:40 | 48.89615 | 2.13281 | 17973 ft | 249 kts | 283° |
| 2026-05-04 19:40 | 48.90012 | 2.10671 | 17969 ft | 258 kts | 283° |
| 2026-05-04 19:40 | 48.90424 | 2.07977 | 17969 ft | 265 kts | 283° |
| 2026-05-04 19:41 | 48.90846 | 2.05221 | 17969 ft | 270 kts | 283° |
| 2026-05-04 19:41 | 48.91273 | 2.02420 | 17971 ft | 274 kts | 283° |
| 2026-05-04 19:41 | 48.91705 | 1.99582 | 17953 ft | 277 kts | 283° |
| 2026-05-04 19:41 | 48.92140 | 1.96718 | 17951 ft | 279 kts | 283° |
| 2026-05-04 19:42 | 48.92576 | 1.93844 | 17953 ft | 280 kts | 283° |
| 2026-05-04 19:42 | 48.93010 | 1.90971 | 17949 ft | 282 kts | 283° |
| 2026-05-04 19:42 | 48.93455 | 1.88027 | 17952 ft | 283 kts | 283° |
| 2026-05-04 19:42 | 48.93896 | 1.85108 | 17951 ft | 283 kts | 283° |
| 2026-05-04 19:43 | 48.94335 | 1.82183 | 17952 ft | 284 kts | 283° |
| 2026-05-04 19:43 | 48.94770 | 1.79289 | 17952 ft | 284 kts | 283° |
| 2026-05-04 19:43 | 48.95210 | 1.76355 | 17949 ft | 285 kts | 283° |
| 2026-05-04 19:43 | 48.95650 | 1.73416 | 17954 ft | 285 kts | 283° |
| 2026-05-04 19:44 | 48.96090 | 1.70469 | 17954 ft | 285 kts | 283° |
| 2026-05-04 19:44 | 48.96528 | 1.67529 | 17958 ft | 285 kts | 282° |
| 2026-05-04 19:44 | 48.96818 | 1.64539 | 17937 ft | 285 kts | 274° |
| 2026-05-04 19:44 | 48.96899 | 1.61523 | 17938 ft | 285 kts | 271° |
| 2026-05-04 19:45 | 48.96996 | 1.58511 | 17945 ft | 285 kts | 274° |
| 2026-05-04 19:45 | 48.97173 | 1.55505 | 17945 ft | 285 kts | 275° |
| 2026-05-04 19:45 | 48.97350 | 1.52490 | 17940 ft | 286 kts | 274° |
| 2026-05-04 19:45 | 48.97504 | 1.49478 | 17941 ft | 286 kts | 274° |
| 2026-05-04 19:46 | 48.97657 | 1.46455 | 17939 ft | 286 kts | 274° |
| 2026-05-04 19:46 | 48.97813 | 1.43440 | 17940 ft | 286 kts | 274° |
| 2026-05-04 19:46 | 48.97971 | 1.40426 | 17942 ft | 286 kts | 274° |
| 2026-05-04 19:46 | 48.98125 | 1.37408 | 17940 ft | 286 kts | 274° |
| 2026-05-04 19:47 | 48.98279 | 1.34389 | 17944 ft | 286 kts | 274° |
| 2026-05-04 19:47 | 48.98433 | 1.31366 | 17943 ft | 286 kts | 274° |
| 2026-05-04 19:47 | 48.98586 | 1.28347 | 17941 ft | 286 kts | 274° |
| 2026-05-04 19:47 | 48.98738 | 1.25324 | 17939 ft | 286 kts | 274° |
| 2026-05-04 19:48 | 48.98889 | 1.22304 | 17948 ft | 286 kts | 274° |
| 2026-05-04 19:48 | 48.99040 | 1.19280 | 17945 ft | 287 kts | 274° |
| 2026-05-04 19:48 | 48.99190 | 1.16252 | 17943 ft | 287 kts | 274° |
| 2026-05-04 19:48 | 48.99338 | 1.13229 | 17944 ft | 287 kts | 274° |
| 2026-05-04 19:49 | 48.99487 | 1.10200 | 17946 ft | 287 kts | 274° |
| 2026-05-04 19:49 | 48.99634 | 1.07175 | 17947 ft | 287 kts | 273° |
| 2026-05-04 19:49 | 48.99780 | 1.04147 | 17947 ft | 287 kts | 273° |
| 2026-05-04 19:49 | 48.99927 | 1.01112 | 17946 ft | 287 kts | 274° |
| 2026-05-04 19:50 | 49.00072 | 0.98080 | 17951 ft | 287 kts | 273° |
| 2026-05-04 19:50 | 49.00217 | 0.95044 | 17953 ft | 287 kts | 273° |
| 2026-05-04 19:50 | 49.00362 | 0.92010 | 17952 ft | 287 kts | 273° |
| 2026-05-04 19:50 | 49.00504 | 0.88974 | 17954 ft | 287 kts | 273° |
| 2026-05-04 19:51 | 49.00646 | 0.85943 | 17951 ft | 287 kts | 273° |
| 2026-05-04 19:51 | 49.00788 | 0.82909 | 17957 ft | 287 kts | 273° |
| 2026-05-04 19:51 | 49.00927 | 0.79881 | 17959 ft | 286 kts | 273° |
| 2026-05-04 19:51 | 49.01066 | 0.76855 | 17953 ft | 286 kts | 273° |
| 2026-05-04 19:52 | 49.01206 | 0.73824 | 17950 ft | 286 kts | 273° |
| 2026-05-04 19:52 | 49.01343 | 0.70800 | 17954 ft | 286 kts | 273° |
| 2026-05-04 19:52 | 49.01480 | 0.67774 | 17953 ft | 286 kts | 273° |
| 2026-05-04 19:52 | 49.01615 | 0.64748 | 17956 ft | 286 kts | 273° |
| 2026-05-04 19:53 | 49.01752 | 0.61719 | 17956 ft | 286 kts | 273° |
| 2026-05-04 19:53 | 49.01886 | 0.58693 | 17954 ft | 287 kts | 273° |
| 2026-05-04 19:53 | 49.02019 | 0.55652 | 17956 ft | 288 kts | 273° |
| 2026-05-04 19:53 | 49.02155 | 0.52598 | 17957 ft | 289 kts | 273° |
| 2026-05-04 19:54 | 49.02289 | 0.49539 | 17956 ft | 289 kts | 272° |
| 2026-05-04 19:54 | 49.02423 | 0.46484 | 17957 ft | 289 kts | 272° |
| 2026-05-04 19:54 | 49.02554 | 0.43424 | 17956 ft | 289 kts | 272° |
| 2026-05-04 19:54 | 49.02685 | 0.40368 | 17953 ft | 289 kts | 272° |
| 2026-05-04 19:55 | 49.02815 | 0.37309 | 17958 ft | 289 kts | 272° |
| 2026-05-04 19:55 | 49.02945 | 0.34256 | 17960 ft | 288 kts | 272° |
| 2026-05-04 19:55 | 49.03072 | 0.31209 | 17957 ft | 288 kts | 272° |
| 2026-05-04 19:55 | 49.03200 | 0.28159 | 17957 ft | 288 kts | 272° |
| 2026-05-04 19:56 | 49.03326 | 0.25120 | 17958 ft | 287 kts | 272° |
| 2026-05-04 19:56 | 49.03452 | 0.22082 | 17961 ft | 287 kts | 272° |
| 2026-05-04 19:56 | 49.03576 | 0.19049 | 17956 ft | 287 kts | 272° |
| 2026-05-04 19:56 | 49.03699 | 0.16018 | 17960 ft | 286 kts | 272° |
| 2026-05-04 19:57 | 49.03821 | 0.12989 | 17961 ft | 286 kts | 272° |
| 2026-05-04 19:57 | 49.03942 | 0.09963 | 17963 ft | 287 kts | 272° |
| 2026-05-04 19:57 | 49.04064 | 0.06929 | 17964 ft | 287 kts | 272° |
| 2026-05-04 19:57 | 49.04186 | 0.03893 | 17965 ft | 287 kts | 272° |
| 2026-05-04 19:58 | 49.04305 | 0.00851 | 17969 ft | 287 kts | 272° |
| 2026-05-04 19:58 | 49.04424 | -0.02200 | 17976 ft | 288 kts | 272° |
| 2026-05-04 19:58 | 49.04543 | -0.05245 | 17975 ft | 288 kts | 272° |
| 2026-05-04 19:58 | 49.04661 | -0.08293 | 17976 ft | 288 kts | 272° |
| 2026-05-04 19:59 | 49.04777 | -0.11306 | 17981 ft | 288 kts | 272° |
| 2026-05-04 19:59 | 49.04893 | -0.14362 | 17980 ft | 289 kts | 272° |
| 2026-05-04 19:59 | 49.05009 | -0.17411 | 17985 ft | 289 kts | 272° |
| 2026-05-04 19:59 | 49.05124 | -0.20475 | 17981 ft | 289 kts | 272° |
| 2026-05-04 20:00 | 49.05238 | -0.23536 | 17984 ft | 289 kts | 271° |
| 2026-05-04 20:00 | 49.05351 | -0.26588 | 17983 ft | 289 kts | 271° |
| 2026-05-04 20:00 | 49.05464 | -0.29643 | 17985 ft | 288 kts | 271° |
| 2026-05-04 20:00 | 49.05575 | -0.32694 | 17988 ft | 288 kts | 271° |
| 2026-05-04 20:01 | 49.05686 | -0.35741 | 17986 ft | 288 kts | 271° |
| 2026-05-04 20:01 | 49.05796 | -0.38818 | 17985 ft | 288 kts | 271° |
| 2026-05-04 20:01 | 49.05904 | -0.41831 | 17984 ft | 287 kts | 271° |
| 2026-05-04 20:01 | 49.06012 | -0.44869 | 17986 ft | 287 kts | 271° |
| 2026-05-04 20:02 | 49.06118 | -0.47910 | 17985 ft | 287 kts | 271° |
| 2026-05-04 20:02 | 49.06224 | -0.50936 | 17987 ft | 286 kts | 271° |
| 2026-05-04 20:02 | 49.06330 | -0.53973 | 17986 ft | 287 kts | 271° |
| 2026-05-04 20:02 | 49.06433 | -0.57002 | 17990 ft | 286 kts | 271° |
| 2026-05-04 20:03 | 49.06538 | -0.60036 | 17988 ft | 286 kts | 271° |
| 2026-05-04 20:03 | 49.06640 | -0.63064 | 17990 ft | 286 kts | 271° |
| 2026-05-04 20:03 | 49.06739 | -0.66090 | 17992 ft | 286 kts | 271° |
| 2026-05-04 20:03 | 49.06844 | -0.69118 | 17985 ft | 285 kts | 271° |
| 2026-05-04 20:04 | 49.06945 | -0.72139 | 17989 ft | 285 kts | 271° |
| 2026-05-04 20:04 | 49.07042 | -0.75165 | 17988 ft | 285 kts | 271° |
| 2026-05-04 20:04 | 49.07140 | -0.78187 | 17988 ft | 285 kts | 271° |
| 2026-05-04 20:04 | 49.07238 | -0.81201 | 17992 ft | 285 kts | 271° |
| 2026-05-04 20:05 | 49.07335 | -0.84221 | 17995 ft | 285 kts | 271° |
| 2026-05-04 20:05 | 49.07431 | -0.87238 | 17968 ft | 285 kts | 271° |
| 2026-05-04 20:05 | 49.07529 | -0.90303 | 17709 ft | 293 kts | 271° |
| 2026-05-04 20:05 | 49.07630 | -0.93439 | 17439 ft | 299 kts | 271° |
| 2026-05-04 20:06 | 49.07730 | -0.96623 | 17175 ft | 302 kts | 271° |
| 2026-05-04 20:06 | 49.07830 | -0.99838 | 16917 ft | 305 kts | 271° |
| 2026-05-04 20:06 | 49.07928 | -1.03079 | 16654 ft | 307 kts | 271° |
| 2026-05-04 20:06 | 49.08027 | -1.06342 | 16400 ft | 308 kts | 272° |
| 2026-05-04 20:07 | 49.08125 | -1.09573 | 16148 ft | 309 kts | 272° |
| 2026-05-04 20:07 | 49.08221 | -1.12856 | 15898 ft | 310 kts | 272° |
| 2026-05-04 20:07 | 49.08318 | -1.16156 | 15644 ft | 311 kts | 272° |
| 2026-05-04 20:07 | 49.08345 | -1.19451 | 15382 ft | 311 kts | 266° |
| 2026-05-04 20:08 | 49.08216 | -1.22750 | 15131 ft | 311 kts | 266° |
| 2026-05-04 20:08 | 49.08107 | -1.26050 | 14887 ft | 312 kts | 267° |
| 2026-05-04 20:08 | 49.08021 | -1.29356 | 14643 ft | 312 kts | 267° |
| 2026-05-04 20:08 | 49.07919 | -1.32680 | 14396 ft | 313 kts | 267° |
| 2026-05-04 20:09 | 49.07814 | -1.35992 | 14152 ft | 313 kts | 267° |
| 2026-05-04 20:09 | 49.07709 | -1.39313 | 13908 ft | 313 kts | 267° |
| 2026-05-04 20:09 | 49.07603 | -1.42628 | 13654 ft | 313 kts | 267° |
| 2026-05-04 20:09 | 49.07500 | -1.45946 | 13381 ft | 313 kts | 267° |
| 2026-05-04 20:10 | 49.07391 | -1.49259 | 13113 ft | 312 kts | 267° |
| 2026-05-04 20:10 | 49.07284 | -1.52526 | 12849 ft | 311 kts | 268° |
| 2026-05-04 20:10 | 49.07177 | -1.55860 | 12583 ft | 310 kts | 268° |
| 2026-05-04 20:10 | 49.07065 | -1.59145 | 12320 ft | 309 kts | 268° |
| 2026-05-04 20:11 | 49.06958 | -1.62412 | 12058 ft | 308 kts | 268° |
| 2026-05-04 20:11 | 49.06848 | -1.65671 | 11795 ft | 307 kts | 268° |
| 2026-05-04 20:11 | 49.06742 | -1.68918 | 11545 ft | 306 kts | 269° |
| 2026-05-04 20:11 | 49.06868 | -1.72097 | 11311 ft | 293 kts | 277° |
| 2026-05-04 20:12 | 49.07035 | -1.75128 | 11046 ft | 281 kts | 274° |
| 2026-05-04 20:12 | 49.07109 | -1.78049 | 10720 ft | 269 kts | 274° |
| 2026-05-04 20:12 | 49.07217 | -1.80824 | 10336 ft | 255 kts | 275° |
| 2026-05-04 20:12 | 49.07332 | -1.83469 | 9969 ft | 246 kts | 275° |
| 2026-05-04 20:13 | 49.07439 | -1.86029 | 9559 ft | 238 kts | 275° |
| 2026-05-04 20:13 | 49.07673 | -1.88479 | 9223 ft | 229 kts | 294° |
| 2026-05-04 20:13 | 49.08461 | -1.90503 | 8972 ft | 218 kts | 307° |
| 2026-05-04 20:13 | 49.09049 | -1.92562 | 8683 ft | 220 kts | 282° |
| 2026-05-04 20:14 | 49.09275 | -1.94990 | 8412 ft | 234 kts | 279° |
| 2026-05-04 20:14 | 49.09527 | -1.97396 | 8161 ft | 232 kts | 282° |
| 2026-05-04 20:14 | 49.09938 | -1.99731 | 7871 ft | 220 kts | 292° |
| 2026-05-04 20:14 | 49.10485 | -2.01855 | 7488 ft | 211 kts | 292° |
| 2026-05-04 20:15 | 49.10956 | -2.03946 | 7097 ft | 205 kts | 290° |
| 2026-05-04 20:15 | 49.11384 | -2.05986 | 6719 ft | 199 kts | 290° |
| 2026-05-04 20:15 | 49.11807 | -2.07972 | 6387 ft | 193 kts | 290° |
| 2026-05-04 20:15 | 49.12219 | -2.09891 | 6036 ft | 188 kts | 290° |
| 2026-05-04 20:16 | 49.12621 | -2.11762 | 5690 ft | 184 kts | 291° |
| 2026-05-04 20:16 | 49.13014 | -2.13596 | 5347 ft | 179 kts | 291° |
| 2026-05-04 20:16 | 49.13393 | -2.15368 | 4999 ft | 172 kts | 290° |
| 2026-05-04 20:16 | 49.13760 | -2.17087 | 4659 ft | 168 kts | 291° |
| 2026-05-04 20:17 | 49.14118 | -2.18762 | 4312 ft | 166 kts | 290° |
| 2026-05-04 20:17 | 49.14499 | -2.20585 | 3978 ft | 191 kts | 291° |
| 2026-05-04 20:17 | 49.14942 | -2.22594 | 3657 ft | 206 kts | 291° |
| 2026-05-04 20:17 | 49.15408 | -2.24709 | 3341 ft | 210 kts | 291° |
| 2026-05-04 20:18 | 49.15704 | -2.26062 | 3127 ft | 196 kts | 291° |
| 2026-05-04 20:18 | 49.16106 | -2.27981 | 2768 ft | 184 kts | 290° |
| 2026-05-04 20:18 | 49.16481 | -2.29798 | 2382 ft | 175 kts | 290° |
| 2026-05-04 20:18 | 49.16849 | -2.31536 | 2018 ft | 168 kts | 290° |
| 2026-05-04 20:19 | 49.17188 | -2.33191 | 1997 ft | 161 kts | 290° |
| 2026-05-04 20:19 | 49.17569 | -2.34751 | 2002 ft | 157 kts | 305° |
| 2026-05-04 20:19 | 49.18437 | -2.35664 | 2017 ft | 156 kts | 355° |
| 2026-05-04 20:19 | 49.19443 | -2.35200 | 2017 ft | 157 kts | 45° |
| 2026-05-04 20:20 | 49.19831 | -2.33754 | 2015 ft | 139 kts | 94° |
| 2026-05-04 20:20 | 49.19790 | -2.32417 | 1849 ft | 115 kts | 82° |
| 2026-05-04 20:20 | 49.19863 | -2.31257 | 1705 ft | 107 kts | 84° |
| 2026-05-04 20:20 | 49.19942 | -2.30121 | 1552 ft | 108 kts | 83° |
| 2026-05-04 20:21 | 49.20022 | -2.28974 | 1406 ft | 109 kts | 83° |
| 2026-05-04 20:21 | 49.20109 | -2.27817 | 1258 ft | 110 kts | 82° |
| 2026-05-04 20:21 | 49.20304 | -2.25509 | 952 ft | 110 kts | 82° |
| 2026-05-04 20:22 | 49.20397 | -2.24367 | 804 ft | 108 kts | 81° |
| 2026-05-04 20:22 | 49.20491 | -2.23244 | 665 ft | 105 kts | 82° |
| 2026-05-04 20:22 | 49.20580 | -2.22138 | 523 ft | 103 kts | 82° |
| 2026-05-04 20:22 | 49.20668 | -2.21035 | 378 ft | 105 kts | 80° |
| 2026-05-04 20:23 | 49.20762 | -2.19937 | 283 ft | 97 kts | 83° |
| 2026-05-04 20:23 | 49.20810 | -2.19161 | 278 ft | 40 kts | 96° |
| 2026-05-04 20:23 | 49.20764 | -2.18924 | 277 ft | 17 kts | 112° |
| 2026-05-04 20:23 | 49.20744 | -2.18855 | 277 ft | 0 kts | 131° |
| 2026-05-04 20:24 | 49.20738 | -2.18849 | 277 ft | 9 kts | 150° |
| 2026-05-04 20:24 | 49.20702 | -2.18860 | 277 ft | 11 kts | 268° |
| 2026-05-04 20:25 | 49.20688 | -2.19059 | 277 ft | 24 kts | 264° |
| 2026-05-04 20:25 | 49.20691 | -2.19275 | 277 ft | 20 kts | 287° |
| 2026-05-04 20:25 | 49.20702 | -2.19498 | 277 ft | 23 kts | 261° |
| 2026-05-04 20:25 | 49.20637 | -2.19670 | 277 ft | 20 kts | 202° |
| 2026-05-04 20:26 | 49.20606 | -2.19857 | 277 ft | 15 kts | 264° |
| 2026-05-04 20:26 | 49.20583 | -2.19931 | 277 ft | 3 kts | 195° |
| 2026-05-04 20:26 | 49.20582 | -2.19931 | 277 ft | 0 kts | 193° |
| 2026-05-04 20:26 | 49.20503 | -2.19924 | 277 ft | 20 kts | 175° |
| 2026-05-04 20:27 | 49.20420 | -2.19848 | 277 ft | 2 kts | 60° |
| 2026-05-04 20:27 | 49.20444 | -2.19683 | 277 ft | 23 kts | 92° |
| 2026-05-04 20:27 | 49.20405 | -2.19440 | 277 ft | 24 kts | 103° |
| 2026-05-04 20:27 | 49.20412 | -2.19235 | 277 ft | 9 kts | 93° |
| 2026-05-04 20:28 | 49.20362 | -2.19221 | 277 ft | 3 kts | 181° |
| 2026-05-04 20:28 | 49.20358 | -2.19221 | 277 ft | 0 kts | 180° |